Map

Track Data

SID SEASON NUMBER BASIN SUBBASIN NAME ISO_TIME NATURE LAT LON WMO_WIND WMO_PRES WMO_AGENCY TRACK_TYPE DIST2LAND LANDFALL IFLAG USA_AGENCY USA_ATCF_ID USA_LAT USA_LON USA_RECORD USA_STATUS USA_WIND USA_PRES USA_SSHS USA_R34_NE USA_R34_SE USA_R34_SW USA_R34_NW USA_R50_NE USA_R50_SE USA_R50_SW USA_R50_NW USA_R64_NE USA_R64_SE USA_R64_SW USA_R64_NW USA_POCI USA_ROCI USA_RMW USA_EYE TOKYO_LAT TOKYO_LON TOKYO_GRADE TOKYO_WIND TOKYO_PRES TOKYO_R50_DIR TOKYO_R50_LONG TOKYO_R50_SHORT TOKYO_R30_DIR TOKYO_R30_LONG TOKYO_R30_SHORT TOKYO_LAND CMA_LAT CMA_LON CMA_CAT CMA_WIND CMA_PRES HKO_LAT HKO_LON HKO_CAT HKO_WIND HKO_PRES NEWDELHI_LAT NEWDELHI_LON NEWDELHI_GRADE NEWDELHI_WIND NEWDELHI_PRES NEWDELHI_CI NEWDELHI_DP NEWDELHI_POCI REUNION_LAT REUNION_LON REUNION_TYPE REUNION_WIND REUNION_PRES REUNION_TNUM REUNION_CI REUNION_RMW REUNION_R34_NE REUNION_R34_SE REUNION_R34_SW REUNION_R34_NW REUNION_R50_NE REUNION_R50_SE REUNION_R50_SW REUNION_R50_NW REUNION_R64_NE REUNION_R64_SE REUNION_R64_SW REUNION_R64_NW BOM_LAT BOM_LON BOM_TYPE BOM_WIND BOM_PRES BOM_TNUM BOM_CI BOM_RMW BOM_R34_NE BOM_R34_SE BOM_R34_SW BOM_R34_NW BOM_R50_NE BOM_R50_SE BOM_R50_SW BOM_R50_NW BOM_R64_NE BOM_R64_SE BOM_R64_SW BOM_R64_NW BOM_ROCI BOM_POCI BOM_EYE BOM_POS_METHOD BOM_PRES_METHOD NADI_LAT NADI_LON NADI_CAT NADI_WIND NADI_PRES WELLINGTON_LAT WELLINGTON_LON WELLINGTON_WIND WELLINGTON_PRES DS824_LAT DS824_LON DS824_STAGE DS824_WIND DS824_PRES TD9636_LAT TD9636_LON TD9636_STAGE TD9636_WIND TD9636_PRES TD9635_LAT TD9635_LON TD9635_WIND TD9635_PRES TD9635_ROCI NEUMANN_LAT NEUMANN_LON NEUMANN_CLASS NEUMANN_WIND NEUMANN_PRES MLC_LAT MLC_LON MLC_CLASS MLC_WIND MLC_PRES USA_GUST BOM_GUST BOM_GUST_PER REUNION_GUST REUNION_GUST_PER USA_SEAHGT USA_SEARAD_NE USA_SEARAD_SE USA_SEARAD_SW USA_SEARAD_NW STORM_SPEED STORM_DIR
1914060S15053 1914 6 SI MM NOT_NAMED 1914-03-01 06:00:00 NR -14.7000 52.8000 reunion main 253 232 _____O________ -1 -14.7000 52.8000 99 9.90000 4 264
1914060S15053 1914 6 SI MM NOT_NAMED 1914-03-01 09:00:00 NR -14.7216 52.5701 main 232 201 _____P________ -1 -14.7216 52.5701 99 5 264
1914060S15053 1914 6 SI MM NOT_NAMED 1914-03-01 12:00:00 NR -14.7435 52.3358 main 201 177 _____P________ -1 -14.7435 52.3358 99 5 265
1914060S15053 1914 6 SI MM NOT_NAMED 1914-03-01 15:00:00 NR -14.7659 52.0930 main 177 155 _____P________ -1 -14.7659 52.0930 99 5 284
1914060S15053 1914 6 SI MM NOT_NAMED 1914-03-01 18:00:00 NR -14.6115 51.7898 main 155 133 _____P____O___ -1 -14.7893 51.8373 99 -13.9000 51.6000 2 6 293
1914060S15053 1914 6 SI MM NOT_NAMED 1914-03-01 21:00:00 NR -14.5183 51.5034 main 133 110 _____P____P___ -1 -14.8141 51.5645 99 -13.9265 51.3813 2 7 288
1914060S15053 1914 6 SI MM NOT_NAMED 1914-03-02 00:00:00 TS -14.4025 51.1413 main 99 72 _____P___OP___ -1 -14.8406 51.2702 99 -14.0000 50.6000 TC 35 -13.9524 51.1500 2 7 285
1914060S15053 1914 6 SI MM NOT_NAMED 1914-03-02 03:00:00 TS -14.3365 50.7886 main 72 32 _____P___PP___ -1 -14.8692 50.9501 99 -13.9901 50.2550 TC 35 -13.9771 50.8938 2 7 276
1914060S15053 1914 6 SI MM NOT_NAMED 1914-03-02 06:00:00 TS -14.3273 50.4091 reunion main 32 0 _____O___OO___ -1 -14.9000 50.6000 99 9.90000 -14.0000 49.9000 TC 35 -14.0000 50.6000 2 8 270
1914060S15053 1914 6 SI MM NOT_NAMED 1914-03-02 09:00:00 TS -14.3323 50.0049 main 0 0 _____P___PP___ -1 -14.9333 50.2172 99 -14.0425 49.5350 TC 35 -14.0211 50.2625 2 8 267
1914060S15053 1914 6 SI MM NOT_NAMED 1914-03-02 12:00:00 TS -14.3705 49.6354 main 0 0 _____P___OP___ -1 -14.9686 49.8063 99 -14.1000 49.2000 TC 35 -14.0428 49.9000 2 7 264
1914060S15053 1914 6 SI MM NOT_NAMED 1914-03-02 15:00:00 TS -14.4078 49.2820 main 0 0 _____P___PP___ -1 -15.0056 49.3734 99 -14.1499 48.9350 TC 35 -14.0680 49.5375 2 7 263
1914060S15053 1914 6 SI MM NOT_NAMED 1914-03-02 18:00:00 TS -14.4479 48.9416 main 0 0 _____P___OO___ -1 -15.0436 48.9249 99 -14.2000 48.7000 TC 35 -14.1000 49.2000 2 6 263
1914060S15053 1914 6 SI MM NOT_NAMED 1914-03-02 21:00:00 TS -14.4862 48.6439 main 0 0 _____P___PP___ -1 -15.0824 48.4670 99 -14.2423 48.4949 TC 35 -14.1340 48.9698 2 6 262
1914060S15053 1914 6 SI MM NOT_NAMED 1914-03-03 00:00:00 TS -14.5327 48.3219 main 0 0 _____P___OP___ -1 -15.1216 48.0061 99 -14.3000 48.2000 TC 35 -14.1764 48.7596 2 7 261
1914060S15053 1914 6 SI MM NOT_NAMED 1914-03-03 03:00:00 TS -14.5947 47.9210 main 0 0 _____P___PP___ -1 -15.1609 47.5483 99 -14.3926 47.6950 TC 35 -14.2307 48.5197 2 8 261
1914060S15053 1914 6 SI MM NOT_NAMED 1914-03-03 06:00:00 TS -14.6667 47.4667 reunion main 11 11 _____O___OO___ -1 -15.2000 47.1000 99 9.90000 -14.5000 47.1000 TC 35 -14.3000 48.2000 2 9 261
1914060S15053 1914 6 SI MM NOT_NAMED 1914-03-03 09:00:00 TS -14.7323 46.9982 main 39 39 _____P___PP___ -1 -15.2193 46.6930 99 -14.5998 46.5574 TC 35 -14.3777 47.7443 2 9 262
1914060S15053 1914 6 SI MM NOT_NAMED 1914-03-03 12:00:00 TS -14.8024 46.4994 main 64 64 _____P___OP___ -1 -15.2368 46.2933 99 -14.7000 46.0000 TC 35 -14.4703 47.2048 2 10 262
1914060S15053 1914 6 SI MM NOT_NAMED 1914-03-03 15:00:00 TS -14.8728 45.9728 main 85 85 _____P___PP___ -1 -15.2559 45.8983 99 -14.7849 45.4073 TC 35 -14.5776 46.6129 2 10 261
1914060S15053 1914 6 SI MM NOT_NAMED 1914-03-03 18:00:00 TS -14.9601 45.4351 main 102 101 _____P___OO___ -1 -15.2802 45.5054 99 -14.9000 44.8000 TC 35 -14.7000 46.0000 2 11 259
1914060S15053 1914 6 SI MM NOT_NAMED 1914-03-03 21:00:00 TS -15.0793 44.8828 main 102 102 _____P___PP___ -1 -15.3133 45.1118 99 -15.0926 44.1627 TC 35 -14.8319 45.3739 2 11 256
1914060S15053 1914 6 SI MM NOT_NAMED 1914-03-04 00:00:00 TS -15.2122 44.3517 main 116 113 _____P___OP___ -1 -15.3586 44.7148 99 -15.3000 43.6000 TC 35 -14.9781 44.7403 2 10 255
1914060S15053 1914 6 SI MM NOT_NAMED 1914-03-04 03:00:00 TS -15.3349 43.8868 main 124 119 _____P___PP___ -1 -15.4197 44.3118 99 -15.4497 43.2123 TC 35 -15.1351 44.1364 2 9 253
1914060S15053 1914 6 SI MM NOT_NAMED 1914-03-04 06:00:00 TS -15.4667 43.4667 reunion main 131 131 _____O___OO___ -1 -15.5000 43.9000 99 9.90000 -15.6000 42.9000 TC 35 -15.3000 43.6000 2 9 251
1914060S15053 1914 6 SI MM NOT_NAMED 1914-03-04 09:00:00 TS -15.6195 43.0523 main 159 159 _____P___PP___ -1 -15.5917 43.4290 99 -15.7999 42.5500 TC 35 -15.4669 43.1778 2 8 248
1914060S15053 1914 6 SI MM NOT_NAMED 1914-03-04 12:00:00 TS -15.7806 42.6564 main 190 189 _____P___OP___ -1 -15.7003 42.9445 99 -16.0000 42.2000 TC 35 -15.6414 42.8246 2 8 247
1914060S15053 1914 6 SI MM NOT_NAMED 1914-03-04 15:00:00 TS -15.9319 42.2717 main 189 159 _____P___PP___ -1 -15.8256 42.4562 99 -16.1499 41.8499 TC 35 -15.8202 42.5091 2 8 247
1914060S15053 1914 6 SI MM NOT_NAMED 1914-03-04 18:00:00 TS -16.0891 41.8913 main 159 130 _____P___OO___ -1 -15.9674 41.9739 99 -16.3000 41.5000 TC 35 -16.0000 42.2000 2 8 247
1914060S15053 1914 6 SI MM NOT_NAMED 1914-03-04 21:00:00 TS -16.2512 41.4995 main 135 108 _____P___PP___ -1 -16.1257 41.5072 99 -16.4774 41.1499 TC 35 -16.1506 41.8415 2 8 245
1914060S15053 1914 6 SI MM NOT_NAMED 1914-03-05 00:00:00 TS -16.4352 41.1168 main 108 96 _____P___OP___ -1 -16.3005 41.0662 99 -16.7000 40.8000 TC 35 -16.3049 41.4844 2 8 241
1914060S15053 1914 6 SI MM NOT_NAMED 1914-03-05 03:00:00 TS -16.6504 40.7435 main 93 78 _____P___PP___ -1 -16.4919 40.6604 99 -16.9775 40.4350 TC 35 -16.4818 41.1351 2 8 236
1914060S15053 1914 6 SI MM NOT_NAMED 1914-03-05 06:00:00 TS -16.9000 40.4000 reunion main 78 69 _____O___OO___ -1 -16.7000 40.3000 99 9.90000 -17.3000 40.1000 TC 35 -16.7000 40.8000 2 8 229
1914060S15053 1914 6 SI MM NOT_NAMED 1914-03-05 09:00:00 TS -17.1896 40.0900 main 84 79 _____P___PP___ -1 -16.9329 39.9770 99 -17.6499 39.8274 TC 35 -16.9859 40.4656 2 8 223
1914060S15053 1914 6 SI MM NOT_NAMED 1914-03-05 12:00:00 TS -17.4998 39.8138 main 93 92 _____P___OP___ -1 -17.1869 39.6936 99 -18.0000 39.6000 TC 35 -17.3125 40.1479 2 8 219
1914060S15053 1914 6 SI MM NOT_NAMED 1914-03-05 15:00:00 TS -17.8070 39.5635 main 104 99 _____P___PP___ -1 -17.4556 39.4494 99 -18.3075 39.3849 TC 35 -17.6578 39.8562 2 8 216
1914060S15053 1914 6 SI MM NOT_NAMED 1914-03-05 18:00:00 TS -18.1109 39.3479 main 124 124 _____P___OO___ -1 -17.7328 39.2438 99 -18.6000 39.2000 TC 35 -18.0000 39.6000 2 7 212
1914060S15053 1914 6 SI MM NOT_NAMED 1914-03-05 21:00:00 TS -18.4168 39.1575 main 154 151 _____P___PP___ -1 -18.0122 39.0764 99 -18.9150 39.0275 TC 35 -18.3233 39.3686 2 7 208
1914060S15053 1914 6 SI MM NOT_NAMED 1914-03-06 00:00:00 TS -18.7082 39.0072 main 181 181 _____P___OP___ -1 -18.2874 38.9469 99 -19.2000 38.9000 TC 35 -18.6373 39.1748 2 6 204
1914060S15053 1914 6 SI MM NOT_NAMED 1914-03-06 03:00:00 TS -18.9666 38.9028 main 208 208 _____P___PP___ -1 -18.5522 38.8549 99 -19.4150 38.8349 TC 35 -18.9327 39.0187 2 5 198
1914060S15053 1914 6 SI MM NOT_NAMED 1914-03-06 06:00:00 TS -19.2000 38.8333 reunion main 225 225 _____O___OO___ -1 -18.8000 38.8000 99 9.90000 -19.6000 38.8000 TC 35 -19.2000 38.9000 2 5 196
1914060S15053 1914 6 SI MM NOT_NAMED 1914-03-06 09:00:00 TS -19.4132 38.7626 main 238 237 _____P___PP___ -1 -19.0110 38.7553 99 -19.8000 38.7350 TC 35 -19.4286 38.7976 2 4 194
1914060S15053 1914 6 SI MM NOT_NAMED 1914-03-06 12:00:00 TS -19.6126 38.7279 main 245 245 _____P___OP___ -1 -19.2078 38.7515 99 -20.0000 38.7000 TC 35 -19.6299 38.7323 2 4 181
1914060S15053 1914 6 SI MM NOT_NAMED 1914-03-06 15:00:00 TS -19.8029 38.7397 main 260 260 _____P___PP___ -1 -19.3924 38.7834 99 -20.2000 38.7350 TC 35 -19.8162 38.7008 2 4 173
1914060S15053 1914 6 SI MM NOT_NAMED 1914-03-06 18:00:00 TS -19.9889 38.7820 main 283 283 _____P___OO___ -1 -19.5668 38.8460 99 -20.4000 38.8000 TC 35 -20.0000 38.7000 2 4 168
1914060S15053 1914 6 SI MM NOT_NAMED 1914-03-06 21:00:00 TS -20.1685 38.8286 main 299 299 _____P___PP___ -1 -19.7328 38.9342 99 -20.5850 38.8426 TC 35 -20.1878 38.7091 2 4 165
1914060S15053 1914 6 SI MM NOT_NAMED 1914-03-07 00:00:00 TS -20.3566 38.8968 main 319 319 _____P___OP___ -1 -19.8924 39.0427 99 -20.8000 38.9000 TC 35 -20.3774 38.7476 2 4 160
1914060S15053 1914 6 SI MM NOT_NAMED 1914-03-07 03:00:00 TS -20.5728 38.9879 main 340 340 _____P___PP___ -1 -20.0475 39.1664 99 -21.0925 38.9850 TC 35 -20.5784 38.8123 2 5 157
1914060S15053 1914 6 SI MM NOT_NAMED 1914-03-07 06:00:00 TS -20.8000 39.1000 reunion main 361 361 _____O___OO___ -1 -20.2000 39.3000 99 9.90000 -21.4000 39.1000 TC 35 -20.8000 38.9000 2 5 155
1914060S15053 1914 6 SI MM NOT_NAMED 1914-03-07 09:00:00 TS -21.0332 39.2171 main 383 383 _____P___PP___ -1 -20.3651 39.4136 99 -21.6650 39.2425 TC 35 -21.0697 38.9952 2 5 153
1914060S15053 1914 6 SI MM NOT_NAMED 1914-03-07 12:00:00 TS -21.2614 39.3513 main 405 389 _____P___OP___ -1 -20.5266 39.5414 99 -21.9000 39.4000 TC 35 -21.3575 39.1124 2 5 150
1914060S15053 1914 6 SI MM NOT_NAMED 1914-03-07 15:00:00 TS -21.4802 39.4909 main 389 375 _____P___PP___ -1 -20.6842 39.6817 99 -22.1150 39.5426 TC 35 -21.6415 39.2484 2 5 147
1914060S15053 1914 6 SI MM NOT_NAMED 1914-03-07 18:00:00 TS -21.6792 39.6441 main 375 353 _____P___OO___ -1 -20.8375 39.8324 99 -22.3000 39.7000 TC 35 -21.9000 39.4000 2 5 141
1914060S15053 1914 6 SI MM NOT_NAMED 1914-03-07 21:00:00 TS -21.8557 39.8187 main 351 330 _____P___PP___ -1 -20.9861 39.9915 99 -22.4650 39.9000 TC 35 -22.1160 39.5647 2 5 135
1914060S15053 1914 6 SI MM NOT_NAMED 1914-03-08 00:00:00 TS -22.0107 39.9999 main 330 309 _____P___OP___ -1 -21.1297 40.1571 99 -22.6000 40.1000 TC 35 -22.3025 39.7425 2 4 132
1914060S15053 1914 6 SI MM NOT_NAMED 1914-03-08 03:00:00 TS -22.1460 40.1696 main 309 298 _____P___PP___ -1 -21.2677 40.3273 99 -22.7075 40.2576 TC 35 -22.4628 39.9241 2 4 130
1914060S15053 1914 6 SI MM NOT_NAMED 1914-03-08 06:00:00 TS -22.2667 40.3333 reunion main 298 277 _____O___OO___ -1 -21.4000 40.5000 99 9.90000 -22.8000 40.4000 TC 35 -22.6000 40.1000 2 4 129
1914060S15053 1914 6 SI MM NOT_NAMED 1914-03-08 09:00:00 TS -22.3826 40.4899 main 277 267 _____P___PP___ -1 -21.5263 40.6622 99 -22.9000 40.5500 TC 35 -22.7215 40.2574 2 4 128
1914060S15053 1914 6 SI MM NOT_NAMED 1914-03-08 12:00:00 TS -22.4896 40.6453 main 268 248 _____P___OP___ -1 -21.6463 40.8280 99 -23.0000 40.7000 TC 35 -22.8224 40.4078 2 4 126
1914060S15053 1914 6 SI MM NOT_NAMED 1914-03-08 15:00:00 TS -22.5911 40.8006 main 248 238 _____P___PP___ -1 -21.7612 40.9976 99 -23.1000 40.8500 TC 35 -22.9121 40.5542 2 4 125
1914060S15053 1914 6 SI MM NOT_NAMED 1914-03-08 18:00:00 TS -22.6907 40.9569 main 230 222 _____P___OO___ -1 -21.8722 41.1707 99 -23.2000 41.0000 TC 35 -23.0000 40.7000 2 3 125
1914060S15053 1914 6 SI MM NOT_NAMED 1914-03-08 21:00:00 TS -22.7895 41.1055 main 222 206 _____P___PP___ -1 -21.9803 41.3476 99 -23.2924 41.1351 TC 35 -23.0958 40.8340 2 4 125
1914060S15053 1914 6 SI MM NOT_NAMED 1914-03-09 00:00:00 TS -22.8930 41.2661 main 206 200 _____P___OP___ -1 -22.0869 41.5281 99 -23.4000 41.3000 TC 35 -23.1922 40.9703 2 4 124
1914060S15053 1914 6 SI MM NOT_NAMED 1914-03-09 03:00:00 TS -23.0119 41.4562 main 191 177 _____P___PP___ -1 -22.1931 41.7122 99 -23.5500 41.5349 TC 35 -23.2926 41.1215 2 4 123
1914060S15053 1914 6 SI MM NOT_NAMED 1914-03-09 06:00:00 TS -23.1333 41.6667 reunion main 177 159 _____O___OO___ -1 -22.3000 41.9000 99 9.90000 -23.7000 41.8000 TC 35 -23.4000 41.3000 2 5 121
1914060S15053 1914 6 SI MM NOT_NAMED 1914-03-09 09:00:00 TS -23.2487 41.8912 main 159 144 _____P___PP___ -1 -22.4124 42.0909 99 -23.8075 42.0576 TC 35 -23.5261 41.5251 2 5 119
1914060S15053 1914 6 SI MM NOT_NAMED 1914-03-09 12:00:00 TS -23.3608 42.1211 main 148 130 _____P___OP___ -1 -22.5249 42.2859 99 -23.9000 42.3000 TC 35 -23.6577 41.7773 2 5 119
1914060S15053 1914 6 SI MM NOT_NAMED 1914-03-09 15:00:00 TS -23.4767 42.3417 main 134 112 _____P___PP___ -1 -22.6373 42.4843 99 -24.0074 42.5000 TC 35 -23.7854 42.0408 2 5 119
1914060S15053 1914 6 SI MM NOT_NAMED 1914-03-09 18:00:00 TS -23.5833 42.5618 main 102 81 _____P___OO___ -1 -22.7498 42.6854 99 -24.1000 42.7000 TC 35 -23.9000 42.3000 2 5 115
1914060S15053 1914 6 SI MM NOT_NAMED 1914-03-09 21:00:00 TS -23.6672 42.7864 main 81 61 _____P___PP___ -1 -22.8623 42.8883 99 -24.1500 42.9426 TC 35 -23.9892 42.5284 2 4 111
1914060S15053 1914 6 SI MM NOT_NAMED 1914-03-10 00:00:00 TS -23.7465 43.0142 main 61 42 _____P___OP___ -1 -22.9748 43.0922 99 -24.2000 43.2000 TC 35 -24.0647 42.7503 2 4 113
1914060S15053 1914 6 SI MM NOT_NAMED 1914-03-10 03:00:00 TS -23.8401 43.2395 main 42 20 _____P___PP___ -1 -23.0874 43.2964 99 -24.3000 43.4500 TC 35 -24.1329 42.9721 2 5 114
1914060S15053 1914 6 SI MM NOT_NAMED 1914-03-10 06:00:00 TS -23.9333 43.4667 reunion main 20 0 _____O___OO___ -1 -23.2000 43.5000 99 9.90000 -24.4000 43.7000 TC 35 -24.2000 43.2000 2 5 113
1914060S15053 1914 6 SI MM NOT_NAMED 1914-03-10 09:00:00 TS -24.0175 43.6996 main 0 0 _____P___PP___ -1 -23.3160 43.6945 99 -24.4575 43.9576 TC 35 -24.2790 43.4469 2 5 111
1914060S15053 1914 6 SI MM NOT_NAMED 1914-03-10 12:00:00 TS -24.0967 43.9294 main 0 0 _____P___OP___ -1 -23.4326 43.8882 99 -24.5000 44.2000 TC 35 -24.3575 43.7000 2 4 111
1914060S15053 1914 6 SI MM NOT_NAMED 1914-03-10 15:00:00 TS -24.1770 44.1451 main 0 0 _____P___PP___ -1 -23.5489 44.0823 99 -24.5499 44.4000 TC 35 -24.4322 43.9531 2 4 112
1914060S15053 1914 6 SI MM NOT_NAMED 1914-03-10 18:00:00 TS -24.2547 44.3593 main 0 0 _____P___OO___ -1 -23.6642 44.2780 99 -24.6000 44.6000 TC 35 -24.5000 44.2000 2 4 111
1914060S15053 1914 6 SI MM NOT_NAMED 1914-03-10 21:00:00 TS -24.3296 44.5862 main 0 0 _____P___PP___ -1 -23.7778 44.4764 99 -24.6500 44.8500 TC 35 -24.5611 44.4323 2 4 109
1914060S15053 1914 6 SI MM NOT_NAMED 1914-03-11 00:00:00 TS -24.4012 44.8121 main 0 0 _____P___OP___ -1 -23.8888 44.6788 99 -24.7000 45.1000 TC 35 -24.6148 44.6576 2 4 110
1914060S15053 1914 6 SI MM NOT_NAMED 1914-03-11 03:00:00 TS -24.4717 45.0218 main 0 0 _____P___PP___ -1 -23.9964 44.8863 99 -24.7574 45.3000 TC 35 -24.6611 44.8791 2 4 109
1914060S15053 1914 6 SI MM NOT_NAMED 1914-03-11 06:00:00 TS -24.5333 45.2333 reunion main 0 0 _____O___OO___ -1 -24.1000 45.1000 99 9.90000 -24.8000 45.5000 TC 35 -24.7000 45.1000 2 4 104
1914060S15053 1914 6 SI MM NOT_NAMED 1914-03-11 09:00:00 TS -24.5742 45.4613 main 0 0 _____P___PP___ -1 -24.1944 45.3088 99 -24.8000 45.7501 TC 35 -24.7280 45.3251 2 4 101
1914060S15053 1914 6 SI MM NOT_NAMED 1914-03-11 12:00:00 TS -24.6114 45.6907 main 0 0 _____P___OP___ -1 -24.2844 45.5219 99 -24.8000 46.0000 TC 35 -24.7499 45.5502 2 4 102
1914060S15053 1914 6 SI MM NOT_NAMED 1914-03-11 15:00:00 TS -24.6618 45.9055 main 0 0 _____P___PP___ -1 -24.3712 45.7414 99 -24.8424 46.2000 TC 35 -24.7718 45.7751 2 4 105
1914060S15053 1914 6 SI MM NOT_NAMED 1914-03-11 18:00:00 TS -24.7187 46.1230 main 0 0 _____P___OO___ -1 -24.4560 45.9690 99 -24.9000 46.4000 TC 35 -24.8000 46.0000 2 4 106
1914060S15053 1914 6 SI MM NOT_NAMED 1914-03-11 21:00:00 TS -24.7789 46.3502 main 0 0 _____P___PP___ -1 -24.5401 46.2067 99 -24.9500 46.6350 TC 35 -24.8466 46.2087 2 4 106
1914060S15053 1914 6 SI MM NOT_NAMED 1914-03-12 00:00:00 TS -24.8414 46.5922 main 0 0 _____P___OP___ -1 -24.6247 46.4565 99 -25.0000 46.9000 TC 35 -24.8996 46.4200 2 5 106
1914060S15053 1914 6 SI MM NOT_NAMED 1914-03-12 03:00:00 TS -24.9070 46.8505 main 0 0 _____P___PP___ -1 -24.7109 46.7202 99 -25.0574 47.1850 TC 35 -24.9528 46.6462 2 5 104
1914060S15053 1914 6 SI MM NOT_NAMED 1914-03-12 06:00:00 TS -24.9667 47.1333 reunion main 0 0 _____O___OO___ -1 -24.8000 47.0000 99 9.90000 -25.1000 47.5000 TC 35 -25.0000 46.9000 2 6 101
1914060S15053 1914 6 SI MM NOT_NAMED 1914-03-12 09:00:00 TS -25.0173 47.4712 main 40 40 _____P___PP___ -1 -24.9079 47.3321 99 -25.1076 47.8651 TC 35 -25.0366 47.2166 2 6 99
1914060S15053 1914 6 SI MM NOT_NAMED 1914-03-12 12:00:00 TS -25.0616 47.8142 main 71 71 _____P___OP___ -1 -25.0192 47.6851 99 -25.1000 48.2000 TC 35 -25.0655 47.5575 2 6 99
1914060S15053 1914 6 SI MM NOT_NAMED 1914-03-12 15:00:00 TS -25.1058 48.1222 main 101 101 _____P___PP___ -1 -25.1310 48.0494 99 -25.0999 48.4225 TC 35 -25.0866 47.8947 2 5 100
1914060S15053 1914 6 SI MM NOT_NAMED 1914-03-12 18:00:00 TS -25.1511 48.3874 main 132 132 _____P___OO___ -1 -25.2405 48.4154 99 -25.1000 48.6000 TC 35 -25.1000 48.2000 2 5 101
1914060S15053 1914 6 SI MM NOT_NAMED 1914-03-12 21:00:00 TS -25.2004 48.6488 main 151 151 _____P___PP___ -1 -25.3447 48.7733 99 -25.1001 48.7925 TC 35 -25.1063 48.4525 2 5 104
1914060S15053 1914 6 SI MM NOT_NAMED 1914-03-13 00:00:00 TS -25.2733 48.9291 main 183 183 _____P___OP___ -1 -25.4411 49.1133 99 -25.1000 49.0000 TC 35 -25.1072 48.6600 2 6 109
1914060S15053 1914 6 SI MM NOT_NAMED 1914-03-13 03:00:00 NR -25.3862 49.2295 main 215 215 _____P____P___ -1 -25.5271 49.4255 99 TC -25.1045 48.8375 2 6 112
1914060S15053 1914 6 SI MM NOT_NAMED 1914-03-13 06:00:00 NR -25.5000 49.5600 reunion main 257 257 _____O____O___ -1 -25.6000 49.7000 99 9.90000 -25.1000 49.0000 2 7 113
1914060S15053 1914 6 SI MM NOT_NAMED 1914-03-13 09:00:00 NR -25.6582 49.9296 main 291 291 _____P________ -1 -25.6582 49.9296 99 2 5 112
1914060S15053 1914 6 SI MM NOT_NAMED 1914-03-13 12:00:00 NR -25.7030 50.1174 main 311 311 _____P________ -1 -25.7030 50.1174 99 2 3 104
1914060S15053 1914 6 SI MM NOT_NAMED 1914-03-13 15:00:00 NR -25.7363 50.2694 main 330 330 _____P________ -1 -25.7363 50.2694 99 2 3 103
1914060S15053 1914 6 SI MM NOT_NAMED 1914-03-13 18:00:00 NR -25.7603 50.3914 main 343 343 _____P________ -1 -25.7603 50.3914 99 2 102
1914060S15053 1914 6 SI MM NOT_NAMED 1914-03-13 21:00:00 NR -25.7768 50.4895 main 352 352 _____P________ -1 -25.7768 50.4895 99 2 100
1914060S15053 1914 6 SI MM NOT_NAMED 1914-03-14 00:00:00 NR -25.7876 50.5697 main 362 362 _____P________ -1 -25.7876 50.5697 99 1 98
1914060S15053 1914 6 SI MM NOT_NAMED 1914-03-14 03:00:00 NR -25.7947 50.6378 main 362 362 _____P________ -1 -25.7947 50.6378 99 1 96
1914060S15053 1914 6 SI MM NOT_NAMED 1914-03-14 06:00:00 NR -25.8000 50.7000 reunion main 371 _____O________ -1 -25.8000 50.7000 99 9.90000 1 95

About IBTrACS Database

This database is a web-friendly format of International Best Track Archive for Climate Stewardship (IBTrACS), a global best track data archive curated by NOAA dating back to 1842.

Updated: 2021-10-21